Nyk Orpheus — 7JDN — position and weather

sailwx.info

Track history (hours):
 
Tides and Currents Weather Stations Pressure Air Temp Water Temp Dewpoint Dewpoint Depression Visibility Wind Speed Wind Dir Waves Ship Positions

Nyk Orpheus

Last reported at 2016-Dec-01 18:15 UTC. Time now 2016-Dec-04 10:16 UTC.
Position N 34°51' E 139°36'.

Length 336 m; draft 10.5 m.

Type: Other ship. MMSI: 432657000.

Date/timePositionNaut miles runAvg speedWind from/ knotsBaromVisibWave heightAir tempDewpointWater temp
2016-Dec-01 18:15N 34°51' E 139°36'1216.6
2016-Dec-01 17:33N 35°01' E 139°43'1414.5
2016-Dec-01 16:33N 35°15' E 139°46'1211.9
2016-Dec-01 15:33N 35°27' E 139°47'9 9.0
2016-Dec-01 14:33N 35°36' E 139°47'0 0.3
2016-Dec-01 13:33N 35°36' E 139°46'0 0.0
2016-Dec-01 12:32N 35°36' E 139°46'0 0.0
2016-Dec-01 11:32N 35°36' E 139°46'0 0.0
2016-Dec-01 10:32N 35°36' E 139°46'0 0.0
2016-Dec-01 09:32N 35°36' E 139°46'0 0.0
2016-Dec-01 08:32N 35°36' E 139°46'0 0.0
2016-Dec-01 07:29N 35°36' E 139°46'0 0.0
2016-Dec-01 06:32N 35°36' E 139°46'0 0.0
2016-Dec-01 05:29N 35°36' E 139°46'0 0.0
2016-Dec-01 04:32N 35°36' E 139°46'0 0.0
2016-Dec-01 03:32N 35°36' E 139°46'0 0.0
2016-Dec-01 02:32N 35°36' E 139°46'0 0.0
2016-Dec-01 01:32N 35°36' E 139°46'0 0.0
2016-Dec-01 00:32N 35°36' E 139°46'0 0.0
2016-Nov-30 23:29N 35°36' E 139°46'0 0.0
2016-Nov-30 22:32N 35°36' E 139°46'0 0.0
2016-Nov-30 21:32N 35°36' E 139°46'0 0.0
2016-Nov-30 20:29N 35°36' E 139°46'0 0.0
2016-Nov-30 19:29N 35°36' E 139°46'0 0.0
2016-Nov-30 18:32N 35°36' E 139°46'0 0.0
2016-Nov-30 17:32N 35°36' E 139°46'0 0.0
2016-Nov-30 16:32N 35°36' E 139°46'0 0.0
2016-Nov-30 15:32N 35°36' E 139°46'0 0.0
2016-Nov-30 14:32N 35°36' E 139°46'0 0.0
2016-Nov-30 13:32N 35°36' E 139°46'0 0.0
2016-Nov-30 12:29N 35°36' E 139°46'0 0.0
2016-Nov-30 11:29N 35°36' E 139°46'0 0.0
2016-Nov-30 10:17N 35°36' E 139°46'0 0.0
2016-Nov-30 09:29N 35°36' E 139°46'0 0.0
2016-Nov-30 08:23N 35°36' E 139°46'0 0.0
2016-Nov-30 07:29N 35°36' E 139°46'0 0.0
2016-Nov-30 06:29N 35°36' E 139°46'0 0.0
2016-Nov-30 05:23N 35°36' E 139°46'0 0.0
2016-Nov-30 04:32N 35°36' E 139°46'0 0.0
2016-Nov-30 03:20N 35°36' E 139°46'0 0.0
2016-Nov-30 02:26N 35°36' E 139°46'0 0.0
2016-Nov-30 01:23N 35°36' E 139°46'0 0.0
2016-Nov-30 00:32N 35°36' E 139°46'0 0.0
2016-Nov-29 23:23N 35°36' E 139°46'2 2.2
2016-Nov-29 22:33N 35°35' E 139°48'7 7.4
2016-Nov-29 21:33N 35°28' E 139°50'1111.5
2016-Nov-29 20:34N 35°17' E 139°46'1312.9
2016-Nov-29 19:33N 35°04' E 139°45'  
2016-Nov-26 21:20N 34°09' E 134°56'911.9
2016-Nov-26 20:33N 34°18' E 134°58'1716.9
2016-Nov-26 19:33N 34°30' E 135°12'1111.4
2016-Nov-26 18:33N 34°41' E 135°18'1 0.6
2016-Nov-26 17:31N 34°41' E 135°17'0 0.0
2016-Nov-26 16:31N 34°41' E 135°17'0 0.0
2016-Nov-26 15:25N 34°41' E 135°17'0 0.0
2016-Nov-26 14:19N 34°41' E 135°17'0 0.0
2016-Nov-26 13:31N 34°41' E 135°17'0 0.0
2016-Nov-26 12:31N 34°41' E 135°17'0 0.0
2016-Nov-26 11:31N 34°41' E 135°17'0 0.0
2016-Nov-26 10:25N 34°41' E 135°17'0 0.0
2016-Nov-26 09:31N 34°41' E 135°17'0 0.0
2016-Nov-26 08:25N 34°41' E 135°17'0 0.0
2016-Nov-26 07:31N 34°41' E 135°17'0 0.0
2016-Nov-26 06:31N 34°41' E 135°17'0 0.0
2016-Nov-26 05:31N 34°41' E 135°17'0 0.0
2016-Nov-26 04:31N 34°41' E 135°17'0 0.0
2016-Nov-26 03:31N 34°41' E 135°17'0 0.0
2016-Nov-26 02:31N 34°41' E 135°17'0 0.0
2016-Nov-26 01:31N 34°41' E 135°17'0 0.0
2016-Nov-26 00:31N 34°41' E 135°17'0 0.0
2016-Nov-25 23:16N 34°41' E 135°17'0 0.2
2016-Nov-25 22:33N 34°41' E 135°17'6 6.4
2016-Nov-25 21:33N 34°34' E 135°16'1716.9
2016-Nov-25 20:34N 34°22' E 135°03'1413.6
2016-Nov-25 19:34N 34°08' E 134°59'9 8.5
2016-Nov-25 18:33N 33°60' E 134°59'9 8.8
2016-Nov-25 17:33N 33°51' E 134°58'  
2016-Nov-22 15:05N 23°42' E 118°19'  
Track history (hours):
 
Tides and Currents Weather Stations Pressure Air Temp Water Temp Dewpoint Dewpoint Depression Visibility Wind Speed Wind Dir Waves Ship Positions

Nyk Orpheus

Last reported at 2016-Dec-01 18:15 UTC. Time now 2016-Dec-04 10:16 UTC.
Position N 34°51' E 139°36'.

Length 336 m; draft 10.5 m.

Type: Other ship. MMSI: 432657000.

Date/timePositionNaut miles runAvg speedWind from/ knotsBaromVisibWave heightAir tempDewpointWater temp
2016-Dec-01 18:15N 34°51' E 139°36'1216.6
2016-Dec-01 17:33N 35°01' E 139°43'1414.5
2016-Dec-01 16:33N 35°15' E 139°46'1211.9
2016-Dec-01 15:33N 35°27' E 139°47'9 9.0
2016-Dec-01 14:33N 35°36' E 139°47'0 0.3
2016-Dec-01 13:33N 35°36' E 139°46'0 0.0
2016-Dec-01 12:32N 35°36' E 139°46'0 0.0
2016-Dec-01 11:32N 35°36' E 139°46'0 0.0
2016-Dec-01 10:32N 35°36' E 139°46'0 0.0
2016-Dec-01 09:32N 35°36' E 139°46'0 0.0
2016-Dec-01 08:32N 35°36' E 139°46'0 0.0
2016-Dec-01 07:29N 35°36' E 139°46'0 0.0
2016-Dec-01 06:32N 35°36' E 139°46'0 0.0
2016-Dec-01 05:29N 35°36' E 139°46'0 0.0
2016-Dec-01 04:32N 35°36' E 139°46'0 0.0
2016-Dec-01 03:32N 35°36' E 139°46'0 0.0
2016-Dec-01 02:32N 35°36' E 139°46'0 0.0
2016-Dec-01 01:32N 35°36' E 139°46'0 0.0
2016-Dec-01 00:32N 35°36' E 139°46'0 0.0
2016-Nov-30 23:29N 35°36' E 139°46'0 0.0
2016-Nov-30 22:32N 35°36' E 139°46'0 0.0
2016-Nov-30 21:32N 35°36' E 139°46'0 0.0
2016-Nov-30 20:29N 35°36' E 139°46'0 0.0
2016-Nov-30 19:29N 35°36' E 139°46'0 0.0
2016-Nov-30 18:32N 35°36' E 139°46'0 0.0
2016-Nov-30 17:32N 35°36' E 139°46'0 0.0
2016-Nov-30 16:32N 35°36' E 139°46'0 0.0
2016-Nov-30 15:32N 35°36' E 139°46'0 0.0
2016-Nov-30 14:32N 35°36' E 139°46'0 0.0
2016-Nov-30 13:32N 35°36' E 139°46'0 0.0
2016-Nov-30 12:29N 35°36' E 139°46'0 0.0
2016-Nov-30 11:29N 35°36' E 139°46'0 0.0
2016-Nov-30 10:17N 35°36' E 139°46'0 0.0
2016-Nov-30 09:29N 35°36' E 139°46'0 0.0
2016-Nov-30 08:23N 35°36' E 139°46'0 0.0
2016-Nov-30 07:29N 35°36' E 139°46'0 0.0
2016-Nov-30 06:29N 35°36' E 139°46'0 0.0
2016-Nov-30 05:23N 35°36' E 139°46'0 0.0
2016-Nov-30 04:32N 35°36' E 139°46'0 0.0
2016-Nov-30 03:20N 35°36' E 139°46'0 0.0
2016-Nov-30 02:26N 35°36' E 139°46'0 0.0
2016-Nov-30 01:23N 35°36' E 139°46'0 0.0
2016-Nov-30 00:32N 35°36' E 139°46'0 0.0
2016-Nov-29 23:23N 35°36' E 139°46'2 2.2
2016-Nov-29 22:33N 35°35' E 139°48'7 7.4
2016-Nov-29 21:33N 35°28' E 139°50'1111.5
2016-Nov-29 20:34N 35°17' E 139°46'1312.9
2016-Nov-29 19:33N 35°04' E 139°45'  
2016-Nov-26 21:20N 34°09' E 134°56'911.9
2016-Nov-26 20:33N 34°18' E 134°58'1716.9
2016-Nov-26 19:33N 34°30' E 135°12'1111.4
2016-Nov-26 18:33N 34°41' E 135°18'1 0.6
2016-Nov-26 17:31N 34°41' E 135°17'0 0.0
2016-Nov-26 16:31N 34°41' E 135°17'0 0.0
2016-Nov-26 15:25N 34°41' E 135°17'0 0.0
2016-Nov-26 14:19N 34°41' E 135°17'0 0.0
2016-Nov-26 13:31N 34°41' E 135°17'0 0.0
2016-Nov-26 12:31N 34°41' E 135°17'0 0.0
2016-Nov-26 11:31N 34°41' E 135°17'0 0.0
2016-Nov-26 10:25N 34°41' E 135°17'0 0.0
2016-Nov-26 09:31N 34°41' E 135°17'0 0.0
2016-Nov-26 08:25N 34°41' E 135°17'0 0.0
2016-Nov-26 07:31N 34°41' E 135°17'0 0.0
2016-Nov-26 06:31N 34°41' E 135°17'0 0.0
2016-Nov-26 05:31N 34°41' E 135°17'0 0.0
2016-Nov-26 04:31N 34°41' E 135°17'0 0.0
2016-Nov-26 03:31N 34°41' E 135°17'0 0.0
2016-Nov-26 02:31N 34°41' E 135°17'0 0.0
2016-Nov-26 01:31N 34°41' E 135°17'0 0.0
2016-Nov-26 00:31N 34°41' E 135°17'0 0.0
2016-Nov-25 23:16N 34°41' E 135°17'0 0.2
2016-Nov-25 22:33N 34°41' E 135°17'6 6.4
2016-Nov-25 21:33N 34°34' E 135°16'1716.9
2016-Nov-25 20:34N 34°22' E 135°03'1413.6
2016-Nov-25 19:34N 34°08' E 134°59'9 8.5
2016-Nov-25 18:33N 33°60' E 134°59'9 8.8
2016-Nov-25 17:33N 33°51' E 134°58'  
2016-Nov-22 15:05N 23°42' E 118°19'  

Dump ship's entire track history